createdAt,value
2016-04-09T00:00:20.193Z,1005.62
2016-04-09T00:03:34.109Z,1005.72
2016-04-09T00:06:37.227Z,1005.62
2016-04-09T00:09:47.189Z,1005.7
2016-04-09T00:12:55.555Z,1005.64
2016-04-09T00:16:05.861Z,1005.62
2016-04-09T00:19:17.837Z,1005.66
2016-04-09T00:22:33.067Z,1005.64
2016-04-09T00:25:36.231Z,1005.66
2016-04-09T00:28:51.911Z,1005.5
2016-04-09T00:32:03.950Z,1005.54
2016-04-09T00:35:11.692Z,1005.62
2016-04-09T00:38:23.576Z,1005.52
2016-04-09T00:41:35.336Z,1005.62
2016-04-09T00:44:47.111Z,1005.66
2016-04-09T00:47:56.541Z,1005.56
2016-04-09T00:51:06.830Z,1005.68
2016-04-09T00:54:16.462Z,1005.62
2016-04-09T00:57:32.443Z,1005.54
2016-04-09T01:00:35.669Z,1005.5
2016-04-09T01:03:47.739Z,1005.42
2016-04-09T01:06:59.700Z,1005.38
2016-04-09T01:10:11.724Z,1005.4
2016-04-09T01:13:19.936Z,1005.42
2016-04-09T01:16:34.227Z,1005.44
2016-04-09T01:19:36.313Z,1005.46
2016-04-09T01:22:46.713Z,1005.46
2016-04-09T01:25:55.940Z,1005.48
2016-04-09T01:29:07.338Z,1005.46
2016-04-09T01:32:19.330Z,1005.42
2016-04-09T01:35:35.357Z,1005.52
2016-04-09T01:38:38.465Z,1005.48
2016-04-09T01:41:48.895Z,1005.44
2016-04-09T01:45:00.933Z,1005.46
2016-04-09T01:48:13.145Z,1005.4
2016-04-09T01:51:23.700Z,1005.44
2016-04-09T01:54:35.430Z,1005.48
2016-04-09T01:57:47.468Z,1005.38
2016-04-09T02:00:59.274Z,1005.5
2016-04-09T02:04:07.657Z,1005.52
2016-04-09T02:07:19.399Z,1005.42
2016-04-09T02:10:35.097Z,1005.42
2016-04-09T02:13:38.089Z,1005.4
2016-04-09T02:16:49.739Z,1005.36
2016-04-09T02:19:57.544Z,1005.38
2016-04-09T02:23:09.270Z,1005.3
2016-04-09T02:26:19.138Z,1005.32
2016-04-09T02:29:31.727Z,1005.32
2016-04-09T02:32:34.624Z,1005.2
2016-04-09T02:35:46.148Z,1005.36
2016-04-09T02:38:57.141Z,1005.28
2016-04-09T02:42:09.056Z,1005.4
2016-04-09T02:45:20.939Z,1005.36
2016-04-09T02:48:36.762Z,1005.44
2016-04-09T02:51:39.614Z,1005.4
2016-04-09T02:54:51.622Z,1005.44
2016-04-09T02:58:03.661Z,1005.44
2016-04-09T03:01:15.279Z,1005.44
2016-04-09T03:04:23.630Z,1005.56
2016-04-09T03:07:35.907Z,1005.38
2016-04-09T03:10:38.774Z,1005.5
2016-04-09T03:13:48.157Z,1005.42
2016-04-09T03:16:56.665Z,1005.4
2016-04-09T03:20:08.236Z,1005.44
2016-04-09T03:23:16.463Z,1005.46
2016-04-09T03:26:31.724Z,1005.48
2016-04-09T03:29:38.497Z,1005.44
2016-04-09T03:32:41.224Z,1005.52
2016-04-09T03:35:51.686Z,1005.46
2016-04-09T03:39:01.850Z,1005.44
2016-04-09T03:42:13.420Z,1005.56
2016-04-09T03:45:21.600Z,1005.48
2016-04-09T03:48:37.283Z,1005.44
2016-04-09T03:51:39.931Z,1005.52
2016-04-09T03:54:51.705Z,1005.62
2016-04-09T03:58:03.213Z,1005.64
2016-04-09T04:01:14.861Z,1005.58
2016-04-09T04:04:30.607Z,1005.54
2016-04-09T04:07:37.302Z,1005.58
2016-04-09T04:10:39.888Z,1005.54
2016-04-09T04:13:48.663Z,1005.52
2016-04-09T04:17:00.576Z,1005.58
2016-04-09T04:20:12.272Z,1005.6
2016-04-09T04:23:20.983Z,1005.58
2016-04-09T04:26:36.603Z,1005.6
2016-04-09T04:29:39.347Z,1005.54
2016-04-09T04:32:50.760Z,1005.6
2016-04-09T04:36:02.362Z,1005.62
2016-04-09T04:39:12.480Z,1005.64
2016-04-09T04:42:24.129Z,1005.66
2016-04-09T04:45:39.014Z,1005.76
2016-04-09T04:48:41.819Z,1005.76
2016-04-09T04:51:52.046Z,1005.76
2016-04-09T04:55:01.522Z,1005.8
2016-04-09T04:58:10.155Z,1005.68
2016-04-09T05:01:20.460Z,1005.64
2016-04-09T05:04:36.097Z,1005.76
2016-04-09T05:07:39.041Z,1005.72
2016-04-09T05:10:47.971Z,1005.86
2016-04-09T05:13:59.917Z,1005.72
2016-04-09T05:17:11.910Z,1005.7
2016-04-09T05:20:23.948Z,1005.76
2016-04-09T05:23:35.803Z,1005.7
2016-04-09T05:26:47.109Z,1005.64
2016-04-09T05:29:56.601Z,1005.74
2016-04-09T05:33:06.313Z,1005.6
2016-04-09T05:36:18.382Z,1005.56
2016-04-09T05:39:30.863Z,1005.58
2016-04-09T05:42:38.042Z,1005.54
2016-04-09T05:45:41.456Z,1005.56
2016-04-09T05:48:53.620Z,1005.5
2016-04-09T05:52:05.863Z,1005.54
2016-04-09T05:55:17.715Z,1005.52
2016-04-09T05:58:33.945Z,1005.42
2016-04-09T06:01:37.359Z,1005.46
2016-04-09T06:04:49.179Z,1005.4
2016-04-09T06:08:01.875Z,1005.42
2016-04-09T06:11:14.540Z,1005.38
2016-04-09T06:14:31.159Z,1005.28
2016-04-09T06:17:39.199Z,1005.18
2016-04-09T06:20:43.566Z,1005.06
2016-04-09T06:23:54.652Z,1005.16
2016-04-09T06:27:08.083Z,1004.98
2016-04-09T06:30:21.997Z,1004.82
2016-04-09T06:33:35.866Z,1004.86
2016-04-09T06:36:50.250Z,1004.88
2016-04-09T06:40:04.539Z,1004.82
2016-04-09T06:43:19.610Z,1004.78
2016-04-09T06:46:38.401Z,1004.63
2016-04-09T06:49:44.770Z,1004.59
2016-04-09T06:52:57.793Z,1004.57
2016-04-09T06:56:10.902Z,1004.43
2016-04-09T06:59:30.409Z,1004.35
2016-04-09T07:02:37.496Z,1004.35
2016-04-09T07:05:50.802Z,1004.17
2016-04-09T07:09:04.934Z,1004.27
2016-04-09T07:12:18.777Z,1004.11
2016-04-09T07:15:34.621Z,1004.01
2016-04-09T07:18:41.256Z,1004.03
2016-04-09T07:21:53.623Z,1004.01
2016-04-09T07:25:07.865Z,1003.87
2016-04-09T07:28:21.905Z,1003.85
2016-04-09T07:31:38.165Z,1003.65
2016-04-09T07:34:44.439Z,1003.77
2016-04-09T07:37:59.337Z,1003.71
2016-04-09T07:41:13.409Z,1003.61
2016-04-09T07:44:32.557Z,1003.51
2016-04-09T07:47:38.522Z,1003.59
2016-04-09T07:50:50.639Z,1003.39
2016-04-09T07:54:05.052Z,1003.39
2016-04-09T07:57:17.702Z,1003.43
2016-04-09T08:00:35.913Z,1003.34
2016-04-09T08:03:41.095Z,1003.45
2016-04-09T08:06:51.463Z,1003.49
2016-04-09T08:10:05.721Z,1003.35
2016-04-09T08:13:16.932Z,1003.3
2016-04-09T08:16:34.847Z,1003.23
2016-04-09T08:19:39.998Z,1003.34
2016-04-09T08:22:53.397Z,1003.23
2016-04-09T08:26:05.467Z,1003.15
2016-04-09T08:29:17.460Z,1003.19
2016-04-09T08:32:32.093Z,1003.21
2016-04-09T08:35:37.273Z,1003.05
2016-04-09T08:38:48.080Z,1003.09
2016-04-09T08:42:02.963Z,1003.07
2016-04-09T08:45:16.128Z,1003.07
2016-04-09T08:48:33.808Z,1002.95
2016-04-09T08:51:39.066Z,1003.01
2016-04-09T08:54:52.998Z,1002.97
2016-04-09T08:58:04.506Z,1002.88
2016-04-09T09:01:16.045Z,1002.95
2016-04-09T09:04:33.866Z,1002.93
2016-04-09T09:07:40.127Z,1002.93
2016-04-09T09:10:54.746Z,1002.88
2016-04-09T09:14:09.550Z,1002.91
2016-04-09T09:17:21.480Z,1002.88
2016-04-09T09:20:39.410Z,1002.97
2016-04-09T09:23:45.624Z,1003.11
2016-04-09T09:26:59.914Z,1002.97
2016-04-09T09:30:12.078Z,1002.93
2016-04-09T09:33:26.133Z,1002.95
2016-04-09T09:36:39.969Z,1003.57
2016-04-09T09:39:51.777Z,1003.19
2016-04-09T09:43:03.925Z,1003.07
2016-04-09T09:46:18.011Z,1002.99
2016-04-09T09:49:36.242Z,1003.19
2016-04-09T09:52:41.325Z,1004.03
2016-04-09T09:55:54.430Z,1004.09
2016-04-09T09:59:07.282Z,1004.55
2016-04-09T10:02:21.056Z,1004.67
2016-04-09T10:05:36.642Z,1004.71
2016-04-09T10:08:42.683Z,1004.86
2016-04-09T10:11:56.318Z,1004.71
2016-04-09T10:15:07.514Z,1004.69
2016-04-09T10:18:22.132Z,1004.75
2016-04-09T10:21:40.249Z,1004.76
2016-04-09T10:24:46.381Z,1004.73
2016-04-09T10:28:00.893Z,1004.69
2016-04-09T10:31:12.900Z,1004.82
2016-04-09T10:34:27.517Z,1004.8
2016-04-09T10:37:42.729Z,1004.78
2016-04-09T10:40:48.549Z,1004.88
2016-04-09T10:44:02.655Z,1004.78
2016-04-09T10:47:16.615Z,1004.78
2016-04-09T10:50:28.421Z,1004.76
2016-04-09T10:53:43.178Z,1004.73
2016-04-09T10:56:48.702Z,1004.73
2016-04-09T11:00:00.712Z,1004.67
2016-04-09T11:03:14.987Z,1004.76
2016-04-09T11:06:29.369Z,1004.8
2016-04-09T11:09:43.581Z,1004.75
2016-04-09T11:12:57.794Z,1004.67
2016-04-09T11:16:11.772Z,1004.76
2016-04-09T11:19:25.123Z,1004.67
2016-04-09T11:22:39.772Z,1004.73
2016-04-09T11:25:44.718Z,1004.73
2016-04-09T11:28:56.351Z,1004.71
2016-04-09T11:32:10.049Z,1004.75
2016-04-09T11:35:19.900Z,1004.63
2016-04-09T11:38:37.299Z,1004.82
2016-04-09T11:41:46.338Z,1004.67
2016-04-09T11:44:51.284Z,1004.69
2016-04-09T11:48:01.841Z,1004.67
2016-04-09T11:51:15.287Z,1004.61
2016-04-09T11:54:28.873Z,1004.63
2016-04-09T11:57:46.443Z,1004.61
2016-04-09T12:00:51.171Z,1004.71
2016-04-09T12:04:01.806Z,1004.75
2016-04-09T12:07:14.564Z,1004.78
2016-04-09T12:10:27.807Z,1004.73
2016-04-09T12:13:43.174Z,1004.55
2016-04-09T12:16:47.917Z,1004.69
2016-04-09T12:20:01.255Z,1004.47
2016-04-09T12:23:12.904Z,1004.55
2016-04-09T12:26:23.021Z,1004.47
2016-04-09T12:29:39.796Z,1004.47
2016-04-09T12:32:44.632Z,1004.41
2016-04-09T12:35:57.406Z,1004.49
2016-04-09T12:39:08.464Z,1004.47
2016-04-09T12:42:19.783Z,1004.37
2016-04-09T12:45:33.245Z,1004.37
2016-04-09T12:48:46.691Z,1004.45
2016-04-09T12:51:58.152Z,1004.41
2016-04-09T12:55:11.600Z,1004.51
2016-04-09T12:58:22.437Z,1004.55
2016-04-09T13:01:40.038Z,1004.47
2016-04-09T13:04:44.937Z,1004.55
2016-04-09T13:07:55.976Z,1004.41
2016-04-09T13:11:09.081Z,1004.45
2016-04-09T13:14:22.292Z,1004.47
2016-04-09T13:17:32.081Z,1004.35
2016-04-09T13:20:45.917Z,1004.43
2016-04-09T13:23:57.472Z,1004.43
2016-04-09T13:27:10.530Z,1004.43
2016-04-09T13:30:22.773Z,1004.53
2016-04-09T13:33:40.968Z,1004.43
2016-04-09T13:36:45.461Z,1004.41
2016-04-09T13:39:58.625Z,1004.49
2016-04-09T13:43:11.729Z,1004.51
2016-04-09T13:46:23.034Z,1004.49
2016-04-09T13:49:40.245Z,1004.59
2016-04-09T13:52:44.847Z,1004.47
2016-04-09T13:55:55.230Z,1004.45
2016-04-09T13:59:08.366Z,1004.49
2016-04-09T14:02:21.562Z,1004.39
2016-04-09T14:05:38.398Z,1004.39
2016-04-09T14:08:46.609Z,1004.45
2016-04-09T14:11:50.586Z,1004.45
2016-04-09T14:15:03.284Z,1004.45
2016-04-09T14:18:14.339Z,1004.49
2016-04-09T14:21:27.253Z,1004.47
2016-04-09T14:24:44.028Z,1004.43
2016-04-09T14:27:48.160Z,1004.43
2016-04-09T14:31:00.888Z,1004.37
2016-04-09T14:34:11.741Z,1004.45
2016-04-09T14:37:24.484Z,1004.41
2016-04-09T14:40:33.790Z,1004.43
2016-04-09T14:43:46.953Z,1004.35
2016-04-09T14:46:57.962Z,1004.43
2016-04-09T14:50:08.488Z,1004.35
2016-04-09T14:53:21.559Z,1004.31
2016-04-09T14:56:34.582Z,1004.37
2016-04-09T14:59:47.575Z,1004.37
2016-04-09T15:03:00.395Z,1004.33
2016-04-09T15:06:12.031Z,1004.27
2016-04-09T15:09:23.180Z,1004.37
2016-04-09T15:12:39.984Z,1004.21
2016-04-09T15:15:47.914Z,1004.41
2016-04-09T15:18:51.828Z,1004.27
2016-04-09T15:22:04.415Z,1004.41
2016-04-09T15:25:14.222Z,1004.35
2016-04-09T15:28:24.840Z,1004.33
2016-04-09T15:31:39.535Z,1004.17
2016-04-09T15:34:47.777Z,1004.35
2016-04-09T15:37:51.568Z,1004.33
2016-04-09T15:41:04.465Z,1004.21
2016-04-09T15:44:17.086Z,1004.21
2016-04-09T15:47:29.828Z,1004.33
2016-04-09T15:50:46.384Z,1004.21
2016-04-09T15:53:50.189Z,1004.39
2016-04-09T15:57:00.462Z,1004.35
2016-04-09T16:00:12.485Z,1004.35
2016-04-09T16:03:22.208Z,1004.27
2016-04-09T16:06:35.259Z,1004.35
2016-04-09T16:09:48.431Z,1004.39
2016-04-09T16:12:52.251Z,1004.41
2016-04-09T16:16:05.239Z,1004.39
2016-04-09T16:19:18.226Z,1004.43
2016-04-09T16:22:28.252Z,1004.45
2016-04-09T16:25:44.996Z,1004.41
2016-04-09T16:28:52.987Z,1004.53
2016-04-09T16:31:56.981Z,1004.43
2016-04-09T16:35:09.756Z,1004.57
2016-04-09T16:38:22.547Z,1004.47
2016-04-09T16:41:35.210Z,1004.51
2016-04-09T16:44:51.985Z,1004.47
2016-04-09T16:47:56.305Z,1004.59
2016-04-09T16:51:09.157Z,1004.61
2016-04-09T16:54:22.151Z,1004.65
2016-04-09T16:57:33.301Z,1004.63
2016-04-09T17:00:47.292Z,1004.59
2016-04-09T17:03:51.425Z,1004.69
2016-04-09T17:07:04.247Z,1004.71
2016-04-09T17:10:15.258Z,1004.78
2016-04-09T17:13:28.109Z,1004.78
2016-04-09T17:16:37.835Z,1004.76
2016-04-09T17:19:50.453Z,1004.8
2016-04-09T17:23:02.117Z,1004.9
2016-04-09T17:26:16.238Z,1004.86
2016-04-09T17:29:28.715Z,1004.86
2016-04-09T17:32:46.489Z,1004.96
2016-04-09T17:35:49.589Z,1005
2016-04-09T17:39:01.536Z,1004.96
2016-04-09T17:42:13.047Z,1005.06
2016-04-09T17:45:23.242Z,1005.18
2016-04-09T17:48:36.094Z,1005.18
2016-04-09T17:51:52.977Z,1005.28
2016-04-09T17:54:57.173Z,1005.34
2016-04-09T17:58:08.259Z,1005.36
2016-04-09T18:01:21.285Z,1005.4
2016-04-09T18:04:32.871Z,1005.4
2016-04-09T18:07:47.036Z,1005.6
2016-04-09T18:10:50.982Z,1005.56
2016-04-09T18:14:00.537Z,1005.58
2016-04-09T18:17:13.423Z,1005.62
2016-04-09T18:20:26.321Z,1005.62
2016-04-09T18:23:39.548Z,1005.6
2016-04-09T18:26:53.900Z,1005.68
2016-04-09T18:29:57.986Z,1005.76
2016-04-09T18:33:10.869Z,1005.82
2016-04-09T18:36:20.911Z,1005.9
2016-04-09T18:39:31.373Z,1005.94
2016-04-09T18:42:48.459Z,1005.98
2016-04-09T18:45:52.811Z,1006.06
2016-04-09T18:49:05.772Z,1005.98
2016-04-09T18:52:16.970Z,1005.98
2016-04-09T18:55:29.978Z,1006.04
2016-04-09T18:58:46.533Z,1006.18
2016-04-09T19:01:54.775Z,1006.14
2016-04-09T19:04:59.128Z,1006.06
2016-04-09T19:08:11.854Z,1006.18
2016-04-09T19:11:24.568Z,1006.16
2016-04-09T19:14:37.076Z,1006.22
2016-04-09T19:17:53.928Z,1006.28
2016-04-09T19:20:57.905Z,1006.22
2016-04-09T19:24:07.772Z,1006.16
2016-04-09T19:27:20.564Z,1006.22
2016-04-09T19:30:31.478Z,1006.16
2016-04-09T19:33:41.096Z,1006.2
2016-04-09T19:36:53.635Z,1006.2
2016-04-09T19:40:06.049Z,1006.26
2016-04-09T19:43:18.701Z,1006.36
2016-04-09T19:46:30.287Z,1006.28
2016-04-09T19:49:47.967Z,1006.36
2016-04-09T19:52:55.834Z,1006.5
2016-04-09T19:55:59.717Z,1006.52
2016-04-09T19:59:09.289Z,1006.46
2016-04-09T20:02:19.018Z,1006.48
2016-04-09T20:05:31.651Z,1006.54
2016-04-09T20:08:48.440Z,1006.57
2016-04-09T20:11:56.418Z,1006.54
2016-04-09T20:15:00.440Z,1006.61
2016-04-09T20:18:13.136Z,1006.61
2016-04-09T20:21:22.912Z,1006.61
2016-04-09T20:24:32.170Z,1006.67
2016-04-09T20:27:49.913Z,1006.63
2016-04-09T20:30:53.655Z,1006.57
2016-04-09T20:34:03.789Z,1006.65
2016-04-09T20:37:16.562Z,1006.61
2016-04-09T20:40:27.635Z,1006.61
2016-04-09T20:43:40.347Z,1006.67
2016-04-09T20:46:56.918Z,1006.67
2016-04-09T20:50:00.753Z,1006.65
2016-04-09T20:53:13.340Z,1006.67
2016-04-09T20:56:24.413Z,1006.75
2016-04-09T20:59:36.764Z,1006.77
2016-04-09T21:02:51.866Z,1006.77
2016-04-09T21:05:55.952Z,1006.77
2016-04-09T21:09:08.632Z,1006.83
2016-04-09T21:12:21.643Z,1006.77
2016-04-09T21:15:34.370Z,1006.85
2016-04-09T21:18:43.394Z,1006.85
2016-04-09T21:21:54.106Z,1006.83
2016-04-09T21:25:06.394Z,1006.87
2016-04-09T21:28:16.121Z,1006.85
2016-04-09T21:31:28.898Z,1006.97
2016-04-09T21:34:41.718Z,1006.89
2016-04-09T21:37:56.694Z,1006.79
2016-04-09T21:41:00.546Z,1006.79
2016-04-09T21:44:10.961Z,1006.85
2016-04-09T21:47:23.284Z,1006.91
2016-04-09T21:50:36.090Z,1006.79
2016-04-09T21:53:52.754Z,1006.89
2016-04-09T21:56:56.715Z,1006.89
2016-04-09T22:00:09.285Z,1006.87
2016-04-09T22:03:22.061Z,1006.93
2016-04-09T22:06:34.711Z,1006.93
2016-04-09T22:09:49.984Z,1006.95
2016-04-09T22:12:57.930Z,1006.95
2016-04-09T22:16:01.797Z,1006.81
2016-04-09T22:19:14.634Z,1006.91
2016-04-09T22:22:27.551Z,1006.89
2016-04-09T22:25:40.574Z,1006.89
2016-04-09T22:28:56.661Z,1006.89
2016-04-09T22:32:00.497Z,1006.95
2016-04-09T22:35:10.738Z,1006.87
2016-04-09T22:38:21.294Z,1006.93
2016-04-09T22:41:34.352Z,1007.03
2016-04-09T22:44:51.015Z,1006.97
2016-04-09T22:47:58.930Z,1007.05
2016-04-09T22:51:02.891Z,1006.97
2016-04-09T22:54:14.509Z,1007.05
2016-04-09T22:57:27.128Z,1007.03
2016-04-09T23:00:40.027Z,1007.11
2016-04-09T23:03:56.536Z,1007.07
2016-04-09T23:07:00.528Z,1007.05
2016-04-09T23:10:13.018Z,1007.01
2016-04-09T23:13:25.841Z,1007.07
2016-04-09T23:16:35.129Z,1007.01
2016-04-09T23:19:45.467Z,1006.99
2016-04-09T23:23:00.490Z,1007.01
2016-04-09T23:26:04.483Z,1007.01
2016-04-09T23:29:16.787Z,1007.05
2016-04-09T23:32:29.298Z,1007.05
2016-04-09T23:35:41.197Z,1007.11
2016-04-09T23:38:57.674Z,1006.97
2016-04-09T23:42:01.510Z,1007.05
2016-04-09T23:45:11.362Z,1007.01
2016-04-09T23:48:20.385Z,1007.05
2016-04-09T23:51:30.427Z,1007.05
2016-04-09T23:54:42.842Z,1007.05
2016-04-09T23:57:59.412Z,1007.11
